Miami University, Ohio
Current Conditions -  °F | °C
As of 9:15 AM on Thursday 27 Nov 2014 (Local Time) from KI67 Reporting Station
Scattered Clouds Scattered Clouds  
Wind Chill: 24°   Ceiling: Unl
Heat Index: 32°   Visibility: 10mi
Dew Point: 23°   Wind: 9mph
Humidity: 69%   Direction: 320°NW
Pressure: 30.26"   Gusts: NA
Location:  39.4851°N, 84.7501°W
Report Text: KI67 271415Z AUTO 32008KT 10SM SCT038 00/M05 A3026 RMK AO1
Loading
Personal Weather Stations






























Interactive Weather Map New forecast layout! Learn more

10-Day Weather Forecast

Advertisements
Track Severe Weather on mobile